Latest Weather Observations for Gold Coast Seaway

IDQ60801

Issued at 12:02 pm EST Thursday 23 March 2017 (issued every 30 minutes, with the page automatically refreshed every 10 minutes)

About weather observations | Map of weather stations | Latest weather observations for QLD | Other Formats
Station Details ID: 040764 Name: GOLD COAST SEAWAY Lat: -27.94 Lon: 153.43 Height: 2.98 m
Data from the previous 72 hours. | See also: Recent months at Gold Coast Seaway
Date/Time
EST
Temp
°C
App
Temp
°C
Dew
Point
°C
Rel
Hum
%
Delta-T
°C
Wind Press
QNH
hPa
Press
MSL
hPa
Rain since
9am
mm
Dir  Spd
km/h
Gust
km/h
Spd
kts
Gust
kts
23/12:00pm 29.0 34.1 27.8 93 0.9 N 17 19 9 10 1015.5 1015.5 -
23/11:30am 27.2 31.1 26.1 94 0.8 N 17 20 9 11 1015.9 1015.9 0.0
23/11:00am 26.8 30.9 25.8 94 0.7 N 15 19 8 10 1016.1 1016.1 0.0
23/10:30am 26.3 30.3 25.6 96 0.5 N 15 19 8 10 1016.3 1016.3 0.0
23/10:00am 26.6 31.3 26.1 97 0.4 NNW 13 20 7 11 1016.3 1016.3 0.0
23/09:30am 25.9 30.7 25.7 99 0.1 N 11 15 6 8 1016.3 1016.3 0.0
23/09:00am 25.1 30.3 25.1 100 0.0 WNW 7 11 4 6 1016.4 1016.4 2.8
23/08:30am 24.6 29.5 24.6 100 0.0 WNW 7 9 4 5 1016.0 1016.0 2.8
23/08:00am 24.0 28.5 24.0 100 0.0 WNW 7 9 4 5 1015.8 1015.8 2.8
23/07:30am 23.7 29.4 23.7 100 0.0 CALM 0 0 0 0 1015.5 1015.5 2.8
23/07:00am 23.5 27.7 23.5 100 0.0 NNW 7 9 4 5 1015.3 1015.3 2.8
23/06:30am 23.2 27.4 23.2 100 0.0 NNE 6 7 3 4 1015.0 1015.0 2.8
23/06:00am 22.9 27.0 22.9 100 0.0 SW 6 7 3 4 1014.9 1014.9 2.8
23/05:30am 22.8 26.3 22.8 100 0.0 SW 9 11 5 6 1014.7 1014.7 2.8
23/05:00am 22.9 26.0 22.9 100 0.0 SW 11 13 6 7 1014.5 1014.5 2.8
23/04:30am 23.0 26.2 23.0 100 0.0 SSW 11 13 6 7 1014.1 1014.1 2.8
23/04:00am 23.0 26.6 23.0 100 0.0 SSW 9 11 5 6 1013.9 1013.9 2.8
23/03:30am 23.0 26.9 23.0 100 0.0 SW 7 9 4 5 1013.9 1013.9 2.8
23/03:00am 23.1 27.1 23.1 100 0.0 SW 7 7 4 4 1014.0 1014.0 2.8
23/02:30am 23.0 26.9 23.0 100 0.0 SW 7 9 4 5 1014.1 1014.1 2.8
23/02:00am 23.0 27.1 23.0 100 0.0 SW 6 7 3 4 1014.2 1014.2 2.8
23/01:30am 23.1 28.0 23.1 100 0.0 SSW 2 7 1 4 1014.4 1014.4 2.8
23/01:00am 23.0 27.1 23.0 100 0.0 SW 6 9 3 5 1014.7 1014.7 2.8
23/12:30am 22.9 26.4 22.9 100 0.0 SW 9 11 5 6 1015.0 1015.0 2.8
23/12:00am 23.0 27.1 23.0 100 0.0 WSW 6 7 3 4 1015.1 1015.1 2.8
 
Date/Time
EST
Temp
°C
App
Temp
°C
Dew
Point
°C
Rel
Hum
%
Delta-T
°C
Wind Press
QNH
hPa
Press
MSL
hPa
Rain since
9am
mm
Dir  Spd
km/h
Gust
km/h
Spd
kts
Gust
kts
22/11:30pm 23.1 27.1 23.1 100 0.0 WSW 7 9 4 5 1015.3 1015.3 2.8
22/11:00pm 23.1 27.3 23.1 100 0.0 WSW 6 7 3 4 1015.5 1015.5 2.8
22/10:30pm 23.3 27.0 23.3 100 0.0 SW 9 11 5 6 1015.7 1015.7 2.8
22/10:00pm 23.5 27.7 23.5 100 0.0 WSW 7 9 4 5 1015.7 1015.7 2.8
22/09:30pm 23.6 27.9 23.6 100 0.0 WSW 7 9 4 5 1015.8 1015.8 2.8
22/09:00pm 23.6 27.9 23.6 100 0.0 WSW 7 9 4 5 1015.6 1015.6 2.8
22/08:30pm 23.7 28.0 23.7 100 0.0 WSW 7 11 4 6 1015.5 1015.5 2.8
22/08:00pm 24.1 28.7 24.1 100 0.0 W 7 9 4 5 1015.2 1015.2 2.8
22/07:30pm 24.4 28.7 24.2 99 0.1 W 9 11 5 6 1015.0 1015.0 2.8
22/07:00pm 24.6 28.6 24.4 99 0.1 NW 11 15 6 8 1014.8 1014.8 2.8
22/06:30pm 24.1 27.0 23.9 99 0.1 NNW 15 17 8 9 1014.6 1014.6 2.8
22/06:00pm 24.6 29.0 24.4 99 0.1 NNW 9 15 5 8 1014.4 1014.4 2.8
22/05:30pm 24.3 28.5 24.1 99 0.1 N 9 13 5 7 1014.0 1014.0 2.8
22/05:00pm 23.4 26.3 23.2 99 0.1 N 13 15 7 8 1013.9 1013.9 2.8
22/04:30pm 25.0 28.1 24.8 99 0.1 N 17 26 9 14 1013.9 1013.9 2.2
22/04:00pm 25.7 30.0 25.5 99 0.1 N 13 17 7 9 1013.7 1013.7 2.0
22/03:30pm 25.3 30.1 25.1 99 0.1 NNW 9 11 5 6 1013.7 1013.7 2.0
22/03:00pm 24.1 26.7 23.9 99 0.1 NNW 17 26 9 14 1013.7 1013.7 2.0
22/02:30pm 26.4 30.4 26.2 99 0.1 NE 17 22 9 12 1013.7 1013.7 0.0
22/02:00pm 26.8 30.6 25.9 95 0.6 ENE 17 22 9 12 1013.7 1013.7 0.0
22/01:30pm 27.2 32.2 26.5 96 0.5 ENE 13 15 7 8 1013.9 1013.9 0.0
22/01:00pm 28.1 32.7 26.5 91 1.1 NE 15 17 8 9 1014.2 1014.2 0.0
22/12:30pm 28.6 33.7 26.2 87 1.7 NE 11 13 6 7 1014.6 1014.6 0.0
22/12:00pm 28.5 33.4 25.9 86 1.8 NNE 11 13 6 7 1014.8 1014.8 0.0
22/11:30am 28.1 33.3 26.3 90 1.3 NNE 11 13 6 7 1015.3 1015.3 0.0
22/11:00am 27.7 32.4 26.1 91 1.1 NNE 13 15 7 8 1015.4 1015.4 0.0
22/10:30am 28.3 33.9 26.3 89 1.4 NNE 9 11 5 6 1015.6 1015.6 0.0
22/10:00am 26.9 31.5 25.9 94 0.7 NW 13 20 7 11 1015.9 1015.9 0.0
22/09:30am 27.4 33.1 26.5 95 0.6 N 9 13 5 7 1016.1 1016.1 0.0
22/09:00am 26.8 32.0 26.3 97 0.4 N 11 13 6 7 1016.2 1016.2 0.0
22/08:30am 26.4 31.9 26.1 98 0.2 NNW 9 13 5 7 1016.1 1016.1 0.0
22/08:00am 25.8 30.9 25.5 98 0.2 WNW 9 13 5 7 1016.2 1016.2 0.0
22/07:30am 25.2 28.4 25.0 99 0.1 NNW 17 24 9 13 1016.0 1016.0 0.0
22/07:00am 25.0 30.0 24.8 99 0.1 N 7 19 4 10 1015.7 1015.7 0.0
22/06:30am 25.0 28.1 24.8 99 0.1 NNE 17 20 9 11 1015.6 1015.6 0.0
22/06:00am 24.6 28.2 24.4 99 0.1 N 13 15 7 8 1015.3 1015.3 0.0
22/05:30am 24.7 27.6 24.5 99 0.1 NNE 17 19 9 10 1015.2 1015.2 0.0
22/05:00am 24.5 26.3 24.2 98 0.2 NNE 22 26 12 14 1014.8 1014.8 0.0
22/04:30am 24.8 26.5 24.6 99 0.1 NNE 24 28 13 15 1014.7 1014.7 0.0
22/04:00am 24.3 26.0 24.1 99 0.1 NNE 22 28 12 15 1014.7 1014.7 0.0
22/03:30am 24.1 24.6 23.9 99 0.1 NNE 28 32 15 17 1014.6 1014.6 0.0
22/03:00am 24.2 24.1 24.2 100 0.0 NE 32 35 17 19 1014.6 1014.6 0.0
22/02:30am 24.4 24.8 24.4 100 0.0 NNE 30 35 16 19 1014.7 1014.7 0.0
22/02:00am 25.1 26.9 24.9 99 0.1 NE 24 28 13 15 1014.8 1014.8 0.0
22/01:30am 25.1 26.6 24.9 99 0.1 NE 26 30 14 16 1014.9 1014.9 0.0
22/01:00am 25.1 26.2 24.9 99 0.1 NE 28 30 15 16 1015.2 1015.2 0.0
22/12:30am 25.0 26.4 24.8 99 0.1 NE 26 30 14 16 1015.6 1015.6 0.0
22/12:00am 24.9 26.2 24.7 99 0.1 NE 26 28 14 15 1015.8 1015.8 0.0
 
Date/Time
EST
Temp
°C
App
Temp
°C
Dew
Point
°C
Rel
Hum
%
Delta-T
°C
Wind Press
QNH
hPa
Press
MSL
hPa
Rain since
9am
mm
Dir  Spd
km/h
Gust
km/h
Spd
kts
Gust
kts
21/11:30pm 25.0 27.2 24.8 99 0.1 NE 22 26 12 14 1015.9 1015.9 0.0
21/11:00pm 24.8 26.5 24.6 99 0.1 NE 24 28 13 15 1016.0 1016.0 0.0
21/10:30pm 24.8 26.5 24.6 99 0.1 NE 24 30 13 16 1016.2 1016.2 0.0
21/10:00pm 25.0 26.4 24.8 99 0.1 ENE 26 28 14 15 1016.2 1016.2 0.0
21/09:30pm 24.9 26.2 24.7 99 0.1 ENE 26 30 14 16 1016.4 1016.4 0.0
21/09:00pm 24.9 26.2 24.7 99 0.1 ENE 26 32 14 17 1016.4 1016.4 0.0
21/08:30pm 25.0 26.4 24.8 99 0.1 NE 26 32 14 17 1016.2 1016.2 0.0
21/08:00pm 25.0 26.8 24.8 99 0.1 ENE 24 28 13 15 1016.0 1016.0 0.0
21/07:30pm 24.3 28.5 24.1 99 0.1 ENE 9 13 5 7 1015.6 1015.6 0.0
21/07:00pm 24.9 26.2 24.6 98 0.2 ENE 26 32 14 17 1015.3 1015.3 0.0
21/06:30pm 25.3 27.7 24.3 94 0.7 ENE 19 22 10 12 1015.1 1015.1 0.0
21/06:00pm 25.4 28.4 24.7 96 0.5 ENE 17 20 9 11 1014.9 1014.9 0.0
21/05:30pm 25.6 28.6 24.7 95 0.6 ENE 17 19 9 10 1014.8 1014.8 0.0
21/05:00pm 26.0 30.4 25.1 95 0.6 ENE 11 17 6 9 1014.8 1014.8 0.0
21/04:30pm 26.2 30.1 24.8 92 1.0 ENE 13 15 7 8 1014.8 1014.8 0.0
21/04:00pm 26.3 30.5 25.3 94 0.7 ENE 13 15 7 8 1014.9 1014.9 0.0
21/03:30pm 26.5 30.5 25.6 95 0.6 ENE 15 17 8 9 1015.1 1015.1 0.0
21/03:00pm 26.7 31.3 26.0 96 0.5 NE 13 17 7 9 1015.3 1015.3 0.0
21/02:30pm 27.0 31.2 26.0 94 0.7 NE 15 19 8 10 1015.3 1015.3 0.0
21/02:00pm 27.5 31.6 26.3 93 0.9 ENE 17 20 9 11 1015.5 1015.5 0.0
21/01:30pm 26.8 30.4 25.6 93 0.8 ENE 17 19 9 10 1015.8 1015.8 0.0
21/01:00pm 26.6 29.7 25.7 95 0.6 ENE 20 24 11 13 1016.0 1016.0 0.0
21/12:30pm 26.9 30.6 25.7 93 0.8 ENE 17 20 9 11 1016.3 1016.3 0.0
21/12:00pm 27.3 31.6 26.6 96 0.5 ENE 17 20 9 11 1016.6 1016.6 0.0
21/11:30am 26.9 30.2 25.7 93 0.8 NE 19 20 10 11 1016.8 1016.8 0.0
21/11:00am 26.8 30.6 25.9 95 0.6 NE 17 19 9 10 1017.1 1017.1 0.0
21/10:30am 26.4 29.6 25.5 95 0.6 ENE 19 22 10 12 1017.2 1017.2 0.0
21/10:00am 26.3 29.2 25.1 93 0.8 ENE 19 24 10 13 1017.5 1017.5 0.0
21/09:30am 26.9 29.7 25.3 91 1.1 NE 20 26 11 14 1017.3 1017.3 0.0
21/09:00am 26.1 28.9 25.2 95 0.6 ENE 20 22 11 12 1017.2 1017.2 10.4
21/08:30am 25.7 28.9 25.5 99 0.1 ENE 19 22 10 12 1017.2 1017.2 10.4
21/08:00am 25.5 27.8 24.5 94 0.7 ENE 20 26 11 14 1017.0 1017.0 10.4
21/07:30am 25.3 26.6 23.4 89 1.3 ENE 22 26 12 14 1016.8 1016.8 10.4
21/07:00am 25.0 27.1 24.7 98 0.2 ENE 22 28 12 15 1016.4 1016.4 10.4
21/06:30am 24.9 26.6 24.6 98 0.2 ENE 24 28 13 15 1016.4 1016.4 10.4
21/06:00am 24.8 26.0 23.8 94 0.7 ENE 24 30 13 16 1016.2 1016.2 10.4
21/05:30am 24.8 25.9 24.3 97 0.3 ENE 26 32 14 17 1015.8 1015.8 10.4
21/05:00am 24.9 25.9 24.7 99 0.1 ENE 28 32 15 17 1015.8 1015.8 10.4
21/04:30am 24.7 25.9 24.5 99 0.1 ENE 26 32 14 17 1015.5 1015.5 10.4
21/04:00am 24.6 25.4 24.4 99 0.1 ENE 28 32 15 17 1015.4 1015.4 10.4
21/03:30am 24.4 25.2 24.4 100 0.0 ENE 28 33 15 18 1015.3 1015.3 10.4
21/03:22am 24.1 25.8 24.1 100 0.0 NE 22 33 12 18 1015.3 1015.3 10.4
21/03:00am 22.7 25.7 22.7 100 0.0 NNW 11 13 6 7 1015.5 1015.5 10.2
21/02:30am 23.2 25.4 23.2 100 0.0 ENE 17 24 9 13 1015.7 1015.7 9.6
21/02:00am 23.0 24.5 23.0 100 0.0 NE 20 26 11 14 1015.7 1015.7 9.4
21/01:30am 23.2 22.5 23.2 100 0.0 NE 32 35 17 19 1016.0 1016.0 8.6
21/01:00am 24.0 23.8 24.0 100 0.0 NE 32 37 17 20 1016.0 1016.0 7.6
21/12:30am 23.9 25.1 23.9 100 0.0 ENE 24 30 13 16 1016.1 1016.1 7.6
21/12:00am 23.5 22.8 23.5 100 0.0 ENE 33 39 18 21 1016.3 1016.3 7.4
 
Date/Time
EST
Temp
°C
App
Temp
°C
Dew
Point
°C
Rel
Hum
%
Delta-T
°C
Wind Press
QNH
hPa
Press
MSL
hPa
Rain since
9am
mm
Dir  Spd
km/h
Gust
km/h
Spd
kts
Gust
kts
20/11:30pm 24.0 23.6 24.0 100 0.0 ENE 33 37 18 20 1016.6 1016.6 7.4
20/11:00pm 24.3 24.2 24.3 100 0.0 ENE 32 37 17 20 1016.7 1016.7 7.4
20/10:30pm 24.5 24.6 24.5 100 0.0 ENE 32 39 17 21 1016.6 1016.6 7.4
20/10:00pm 24.7 24.9 24.7 100 0.0 E 32 35 17 19 1016.7 1016.7 7.4
20/09:30pm 24.6 24.7 24.6 100 0.0 E 32 39 17 21 1016.8 1016.8 7.4
20/09:00pm 24.6 24.7 24.6 100 0.0 E 32 35 17 19 1017.0 1017.0 7.4
20/08:30pm 24.6 25.1 24.6 100 0.0 E 30 33 16 18 1016.7 1016.7 7.4
20/08:00pm 24.7 25.3 24.7 100 0.0 E 30 35 16 19 1016.5 1016.5 7.4
20/07:30pm 25.0 26.1 25.0 100 0.0 E 28 33 15 18 1016.3 1016.3 7.4
20/07:00pm 25.1 26.6 24.9 99 0.1 ENE 26 30 14 16 1016.2 1016.2 7.4
20/06:30pm 24.9 27.1 24.9 100 0.0 ENE 22 30 12 16 1015.8 1015.8 7.4
20/06:00pm 25.1 27.1 25.1 100 0.0 ENE 24 30 13 16 1015.6 1015.6 7.4
20/05:30pm 25.0 26.8 24.8 99 0.1 ENE 24 32 13 17 1015.6 1015.6 7.4
20/05:00pm 25.2 26.7 25.0 99 0.1 ENE 26 33 14 18 1015.5 1015.5 7.4
20/04:30pm 25.0 26.0 24.8 99 0.1 E 28 33 15 18 1015.3 1015.3 7.4
20/04:00pm 24.9 26.2 24.7 99 0.1 ENE 26 33 14 18 1015.4 1015.4 7.2
20/03:30pm 24.8 25.7 24.6 99 0.1 ENE 28 35 15 19 1015.3 1015.3 7.2
20/03:00pm 25.1 26.3 25.1 100 0.0 ENE 28 35 15 19 1015.1 1015.1 6.8
20/02:30pm 25.4 26.4 25.4 100 0.0 ENE 30 35 16 19 1015.1 1015.1 6.8
20/02:00pm 25.4 26.0 25.4 100 0.0 ENE 32 41 17 22 1015.1 1015.1 6.8
20/01:30pm 24.7 26.8 24.7 100 0.0 ENE 22 37 12 20 1015.4 1015.4 6.8
20/01:00pm 24.2 24.5 24.2 100 0.0 NE 30 37 16 20 1015.7 1015.7 6.2
20/12:30pm 25.2 26.1 25.2 100 0.0 ENE 30 39 16 21 1015.8 1015.8 4.6

Other Formats:

Comma delimited format used in spreadsheet applications
http://www.bom.gov.au/fwo/IDQ60801/IDQ60801.94580.axf

JavaScript Object Notation format (JSON) in row-major order
http://www.bom.gov.au/fwo/IDQ60801/IDQ60801.94580.json